X  Sluiten METAR luchtvaart weer gegevens      EHAM Amsterdam Schiphol
Temperatuur
12°C Temperatuur
10°C Dauwpunt
88% Vochtigheid



Wind
58 KM/U
36 MPH
16 M/S
31 KTS



250°
WZW
Huidig weer

Veel verspreide wolken Veel verspreide wolken
Luchtdruk 1004.92 (hPa) - 29.68 (inHg)
Zicht 6.2 (mijl) - 10 (km)
Vliegveld
Vliegveld code EHAM

Locatie : Amsterdam Schiphol
Afstand: 2 (km)

Metar:
EHAM 231155Z 25031G48KT 9999 SCT012 BKN015 12/10 Q1005 TEMPO 4000 RADZ BKN012

Tijd: 23-02-2020 12:55 CET